Time;durP1;ratioP1;P1;durP2;ratioP2;P2;SDS_P1;SDS_P2;PMS_P1;PMS_P2;Temp;Humidity;BMP_temperature;BMP_pressure;BME280_temperature;BME280_humidity;BME280_pressure;Samples;Min_cycle;Max_cycle;Signal;HPM_P1;HPM_P2
2021/12/18 00:01:43;;;;;;;15.18;4.90;;;;;;;2.11;100.00;102435.04;3387507;84;99000;-95
2021/12/18 00:06:44;;;;;;;17.00;4.83;;;;;;;2.08;100.00;102422.55;3423047;83;99210;-94
2021/12/18 00:11:45;;;;;;;14.33;4.70;;;;;;;2.03;100.00;102434.77;3381079;84;98848;-95
2021/12/18 00:16:46;;;;;;;14.10;5.67;;;;;;;1.99;100.00;102434.50;3384138;85;98894;-94
2021/12/18 00:21:47;;;;;;;13.77;4.57;;;;;;;1.95;100.00;102443.44;3385791;84;99474;-87
2021/12/18 00:26:48;;;;;;;12.50;4.40;;;;;;;1.93;100.00;102448.34;3395796;84;98895;-87
2021/12/18 00:31:49;;;;;;;13.15;4.90;;;;;;;1.89;100.00;102441.81;3356910;85;98451;-87
2021/12/18 00:36:51;;;;;;;17.53;4.40;;;;;;;1.87;100.00;102446.71;3397430;84;99233;-86
2021/12/18 00:46:58;;;;;;;14.37;5.07;;;;;;;1.82;100.00;102451.60;3369453;84;99133;-87
2021/12/18 00:51:59;;;;;;;13.77;4.27;;;;;;;1.80;100.00;102463.81;3347262;84;99261;-87
2021/12/18 00:57:00;;;;;;;13.80;4.43;;;;;;;1.78;100.00;102470.86;3402791;84;98885;-87
2021/12/18 01:02:02;;;;;;;13.00;4.33;;;;;;;1.76;100.00;102466.22;3381782;84;98781;-87
2021/12/18 01:07:03;;;;;;;19.53;5.37;;;;;;;1.73;100.00;102468.14;3347268;86;98823;-87
2021/12/18 01:12:07;;;;;;;15.00;4.17;;;;;;;1.69;100.00;102471.67;3323030;85;98758;-87
2021/12/18 01:27:28;;;;;;;14.23;4.03;;;;;;;1.58;100.00;102462.67;3334169;86;98987;-86
2021/12/18 01:32:29;;;;;;;10.03;3.63;;;;;;;1.53;100.00;102464.57;3324945;86;98329;-87
2021/12/18 01:37:30;;;;;;;14.83;4.33;;;;;;;1.49;100.00;102460.19;3325198;86;98272;-87
2021/12/18 01:53:01;;;;;;;11.37;3.70;;;;;;;1.38;100.00;102447.69;3334205;86;98848;-87
2021/12/18 01:58:04;;;;;;;17.27;4.70;;;;;;;1.34;100.00;102447.14;3314867;87;98967;-87
2021/12/18 02:03:06;;;;;;;17.40;4.87;;;;;;;1.32;100.00;102449.31;3337738;87;99017;-87
2021/12/18 02:08:07;;;;;;;12.83;4.10;;;;;;;1.32;100.00;102450.67;3344808;85;98986;-87
2021/12/18 02:13:24;;;;;;;12.10;4.70;;;;;;;1.32;100.00;102454.73;3306558;87;98605;-87
2021/12/18 02:23:39;;;;;;;10.50;4.27;;;;;;;1.34;100.00;102448.49;3333464;86;98976;-87
2021/12/18 02:28:44;;;;;;;13.13;4.53;;;;;;;1.37;100.00;102447.97;3330934;86;99012;-87
2021/12/18 02:33:45;;;;;;;18.63;5.33;;;;;;;1.41;100.00;102451.77;3330616;86;98880;-87
2021/12/18 02:43:50;;;;;;;11.57;4.33;;;;;;;1.51;100.00;102436.34;3365598;85;26717;-87
2021/12/18 02:48:54;;;;;;;15.77;6.20;;;;;;;1.56;100.00;102441.78;3358302;85;98976;-87
2021/12/18 02:53:55;;;;;;;15.67;5.17;;;;;;;1.65;100.00;102446.14;3352319;85;98748;-88
2021/12/18 02:59:08;;;;;;;14.27;6.23;;;;;;;1.73;100.00;102461.88;3350817;85;99305;-87
2021/12/18 03:04:16;;;;;;;15.17;4.97;;;;;;;1.81;100.00;102449.95;3296852;87;98119;-88
2021/12/18 03:24:55;;;;;;;17.13;5.40;;;;;;;2.07;100.00;102420.37;3396600;85;98761;-88
2021/12/18 03:29:46;;;;;;;14.70;4.93;;;;;;;2.13;100.00;102412.48;3389454;84;98816;-88
2021/12/18 03:34:46;;;;;;;16.67;5.50;;;;;;;2.18;100.00;102416.55;3418464;84;98889;-89
2021/12/18 03:39:48;;;;;;;14.90;5.93;;;;;;;2.23;100.00;102408.41;3386592;83;99238;-88
2021/12/18 03:44:49;;;;;;;18.40;5.77;;;;;;;2.25;100.00;102406.22;3390776;85;99231;-88
2021/12/18 03:49:50;;;;;;;12.77;5.30;;;;;;;2.31;100.00;102417.91;3397414;84;98476;-91
2021/12/18 03:54:51;;;;;;;31.03;7.60;;;;;;;2.34;100.00;102403.76;3385334;85;98473;-90
2021/12/18 03:59:52;;;;;;;16.23;6.60;;;;;;;2.38;100.00;102406.20;3392193;83;99205;-89
2021/12/18 04:04:54;;;;;;;16.30;6.47;;;;;;;2.41;100.00;102406.47;3373523;83;99229;-89
2021/12/18 04:09:55;;;;;;;13.80;6.27;;;;;;;2.46;100.00;102402.38;3389731;84;98851;-89
2021/12/18 04:14:55;;;;;;;19.00;7.90;;;;;;;2.47;100.00;102401.28;3390752;85;98931;-89
2021/12/18 04:19:56;;;;;;;20.30;9.00;;;;;;;2.51;100.00;102382.55;3379807;84;98844;-89
2021/12/18 04:24:57;;;;;;;19.53;8.60;;;;;;;2.54;100.00;102367.03;3399904;83;98705;-90
2021/12/18 04:29:58;;;;;;;18.45;8.05;;;;;;;2.57;100.00;102366.50;3396804;84;99038;-89
2021/12/18 04:34:59;;;;;;;18.20;8.20;;;;;;;2.59;100.00;102358.87;3387369;84;98967;-90
2021/12/18 04:39:59;;;;;;;23.63;8.40;;;;;;;2.62;100.00;102350.17;3278049;86;98967;-89
2021/12/18 04:45:01;;;;;;;21.40;9.20;;;;;;;2.64;100.00;102340.65;3293258;86;99401;-89
2021/12/18 04:50:03;;;;;;;17.00;8.60;;;;;;;2.64;100.00;102338.47;3306378;86;98895;-89
2021/12/18 04:55:06;;;;;;;20.87;9.93;;;;;;;2.66;100.00;102347.14;3323704;84;99128;-88
2021/12/18 05:00:11;;;;;;;23.90;10.53;;;;;;;2.69;100.00;102348.76;3298554;87;99190;-89
2021/12/18 05:05:14;;;;;;;29.00;14.30;;;;;;;2.69;100.00;102340.60;3307569;86;99102;-89
2021/12/18 05:10:15;;;;;;;37.47;15.23;;;;;;;2.69;100.00;102344.67;3321090;86;99051;-89
2021/12/18 05:15:16;;;;;;;42.63;17.90;;;;;;;2.67;100.00;102337.36;3317934;86;99475;-88
2021/12/18 05:20:17;;;;;;;47.80;16.50;;;;;;;2.67;100.00;102337.36;3288263;87;99476;-89
2021/12/18 05:25:18;;;;;;;63.47;20.13;;;;;;;2.68;100.00;102342.27;3292815;87;98896;-90
2021/12/18 05:30:19;;;;;;;62.17;20.73;;;;;;;2.67;100.00;102344.72;3366603;85;99243;-89
2021/12/18 05:35:20;;;;;;;59.80;20.90;;;;;;;2.68;100.00;102340.91;3316143;86;99196;-89
2021/12/18 05:40:24;;;;;;;65.72;20.52;;;;;;;2.67;100.00;102351.52;3299577;86;99015;-89
2021/12/18 05:45:25;;;;;;;63.15;20.88;;;;;;;2.72;100.00;102350.11;3286628;86;99059;-89
2021/12/18 05:50:28;;;;;;;55.80;20.87;;;;;;;2.70;100.00;102342.25;3299987;85;99121;-89
2021/12/18 05:55:30;;;;;;;52.37;18.50;;;;;;;2.71;100.00;102343.88;3373533;85;98748;-88
2021/12/18 06:00:31;;;;;;;57.73;17.93;;;;;;;2.74;100.00;102348.73;3374285;85;99294;-91
2021/12/18 06:05:32;;;;;;;47.03;17.93;;;;;;;2.76;100.00;102351.19;3373688;85;99448;-89
2021/12/18 06:10:33;;;;;;;44.33;16.87;;;;;;;2.77;100.00;102346.02;3338472;86;99172;-89
2021/12/18 06:15:34;;;;;;;31.40;14.27;;;;;;;2.78;100.00;102341.66;3330173;86;99516;-90
2021/12/18 06:20:34;;;;;;;28.20;12.83;;;;;;;2.76;100.00;102343.03;3302806;85;99083;-89
2021/12/18 06:25:35;;;;;;;32.87;13.20;;;;;;;2.74;100.00;102330.27;3310515;86;98634;-89
2021/12/18 06:30:36;;;;;;;25.93;13.07;;;;;;;2.73;100.00;102344.97;3338228;86;99236;-89
2021/12/18 06:35:37;;;;;;;25.23;12.05;;;;;;;2.73;100.00;102351.20;3382883;84;99249;-89
2021/12/18 06:40:38;;;;;;;27.57;12.73;;;;;;;2.77;100.00;102358.25;3375796;84;99451;-89
2021/12/18 06:45:39;;;;;;;25.37;12.83;;;;;;;2.78;100.00;102344.94;3297798;87;98287;-87
2021/12/18 06:50:41;;;;;;;23.67;12.60;;;;;;;2.78;100.00;102337.58;3324274;86;99454;-90
2021/12/18 06:55:42;;;;;;;28.83;13.73;;;;;;;2.79;100.00;102341.13;3322237;85;26277;-89
2021/12/18 07:00:43;;;;;;;23.17;11.77;;;;;;;2.79;100.00;102343.28;3314191;85;99232;-89
2021/12/18 07:05:43;;;;;;;24.47;12.30;;;;;;;2.82;100.00;102344.09;3326395;85;99517;-89
2021/12/18 07:10:45;;;;;;;26.03;11.67;;;;;;;2.82;100.00;102353.61;3318703;84;99201;-90
2021/12/18 07:15:46;;;;;;;25.63;11.63;;;;;;;2.82;100.00;102339.19;3315735;85;99093;-91
2021/12/18 07:20:48;;;;;;;20.17;10.17;;;;;;;2.81;100.00;102342.48;3329574;86;99533;-90
2021/12/18 07:25:48;;;;;;;20.20;10.77;;;;;;;2.79;100.00;102338.41;3320933;86;26311;-91
2021/12/18 07:30:49;;;;;;;23.53;11.47;;;;;;;2.79;100.00;102329.69;3323975;85;99348;-91
2021/12/18 07:35:50;;;;;;;20.83;11.43;;;;;;;2.83;100.00;102328.05;3330977;85;99113;-90
2021/12/18 07:40:51;;;;;;;21.47;11.67;;;;;;;2.86;100.00;102311.72;3350141;86;99225;-89
2021/12/18 07:45:52;;;;;;;23.15;12.60;;;;;;;2.85;100.00;102310.09;3301628;86;99145;-89
2021/12/18 07:50:53;;;;;;;23.12;12.20;;;;;;;2.88;100.00;102321.75;3334651;85;99097;-89
2021/12/18 07:55:54;;;;;;;23.60;13.17;;;;;;;2.90;100.00;102318.23;3318099;86;33364;-91
2021/12/18 08:00:54;;;;;;;20.53;12.00;;;;;;;2.93;100.00;102315.76;3312108;86;100470;-90
2021/12/18 08:05:55;;;;;;;23.30;12.60;;;;;;;2.96;100.00;102307.59;3344892;86;99294;-89
2021/12/18 08:10:56;;;;;;;21.47;11.97;;;;;;;2.98;100.00;102306.22;3321872;85;99053;-90
2021/12/18 08:15:57;;;;;;;24.90;12.67;;;;;;;2.98;100.00;102299.95;3328203;86;99484;-90
2021/12/18 08:20:59;;;;;;;23.40;11.77;;;;;;;3.02;100.00;102287.42;3312619;85;99138;-89
2021/12/18 08:25:59;;;;;;;21.73;11.67;;;;;;;3.03;100.00;102292.59;3311611;86;31469;-92
2021/12/18 08:31:00;;;;;;;19.07;10.77;;;;;;;3.04;100.00;102289.30;3312696;85;99273;-88
2021/12/18 08:36:01;;;;;;;24.83;12.53;;;;;;;3.08;100.00;102287.65;3307392;86;99168;-89
2021/12/18 08:41:02;;;;;;;21.97;12.70;;;;;;;3.13;100.00;102278.09;3312017;86;99409;-90
2021/12/18 08:46:04;;;;;;;20.47;11.37;;;;;;;3.16;100.00;102282.42;3336206;85;99512;-89
2021/12/18 08:51:05;;;;;;;20.05;11.50;;;;;;;3.19;100.00;102278.33;3328075;85;99435;-89
2021/12/18 08:56:06;;;;;;;28.70;14.43;;;;;;;3.23;100.00;102270.66;3277929;87;32106;-89
2021/12/18 09:01:07;;;;;;;21.73;12.97;;;;;;;3.23;100.00;102261.14;3317663;85;99404;-89
2021/12/18 09:06:08;;;;;;;24.98;14.05;;;;;;;3.26;100.00;102257.87;3314118;86;99440;-88
2021/12/18 09:11:09;;;;;;;24.47;12.90;;;;;;;3.31;100.00;102257.00;3336297;85;99355;-89
2021/12/18 09:16:10;;;;;;;19.00;10.30;;;;;;;3.34;100.00;102248.28;3330895;85;100116;-88
2021/12/18 09:21:10;;;;;;;16.30;9.07;;;;;;;3.39;100.00;102250.97;3321602;85;99878;-89
2021/12/18 09:26:11;;;;;;;17.73;9.67;;;;;;;3.42;100.00;102244.94;3323906;85;31691;-89
2021/12/18 09:31:13;;;;;;;21.43;10.53;;;;;;;3.46;100.00;102244.63;3336276;85;98728;-89
2021/12/18 09:36:17;;;;;;;21.47;10.80;;;;;;;3.49;100.00;102243.52;3338998;84;98985;-89
2021/12/18 09:41:18;;;;;;;20.70;10.03;;;;;;;3.51;100.00;102231.80;3328973;85;99086;-89
2021/12/18 09:46:20;;;;;;;23.00;10.97;;;;;;;3.54;100.00;102228.50;3349656;85;99098;-89
2021/12/18 09:51:24;;;;;;;17.60;9.97;;;;;;;3.57;100.00;102229.30;3318447;85;99452;-89
2021/12/18 09:56:25;;;;;;;20.00;10.67;;;;;;;3.60;100.00;102217.02;3344539;85;25923;-90
2021/12/18 10:01:26;;;;;;;19.35;9.93;;;;;;;3.63;100.00;102205.01;3313244;86;100416;-92
2021/12/18 10:06:43;;;;;;;16.87;9.60;;;;;;;3.64;100.00;102197.09;3270675;86;98809;-89
2021/12/18 10:11:49;;;;;;;18.60;9.23;;;;;;;3.67;100.00;102191.05;3333893;85;98865;-89
2021/12/18 10:16:52;;;;;;;20.77;10.45;;;;;;;3.70;100.00;102181.50;3311198;85;99217;-90
2021/12/18 10:22:01;;;;;;;18.30;9.35;;;;;;;3.71;100.00;102174.41;3360044;84;99028;-91
2021/12/18 10:27:16;;;;;;;17.27;8.67;;;;;;;3.73;100.00;102173.59;3333984;84;99218;-89
2021/12/18 10:32:21;;;;;;;15.23;8.50;;;;;;;3.77;100.00;102172.45;3300472;86;98926;-90
2021/12/18 10:37:25;;;;;;;17.67;9.47;;;;;;;3.78;100.00;102170.78;3350858;85;99156;-89
2021/12/18 10:42:40;;;;;;;16.45;8.98;;;;;;;3.80;100.00;102170.50;3337623;85;99104;-91
2021/12/18 10:47:45;;;;;;;18.57;9.33;;;;;;;3.81;100.00;102158.50;3311189;86;98913;-89
2021/12/18 10:53:06;;;;;;;15.33;8.40;;;;;;;3.81;100.00;102148.43;3290371;85;98946;-91
2021/12/18 10:58:13;;;;;;;17.00;9.70;;;;;;;3.82;100.00;102136.43;3337385;85;99244;-89
2021/12/18 11:03:28;;;;;;;20.50;12.03;;;;;;;3.85;100.00;102136.40;3327047;85;99019;-89
2021/12/18 11:08:33;;;;;;;23.00;11.77;;;;;;;3.90;100.00;102134.44;3289402;86;99099;-89
2021/12/18 11:13:45;;;;;;;20.17;10.97;;;;;;;3.95;100.00;102125.39;3275579;86;98025;-91
2021/12/18 11:18:46;;;;;;;16.50;9.48;;;;;;;3.98;100.00;102108.47;3344461;84;99309;-90
2021/12/18 11:24:04;;;;;;;15.97;9.63;;;;;;;3.96;100.00;102097.04;3345133;85;98852;-89
2021/12/18 11:29:04;;;;;;;18.37;10.32;;;;;;;4.01;100.00;102105.14;3311690;85;98899;-89
2021/12/18 11:34:06;;;;;;;17.27;10.50;;;;;;;4.05;100.00;102083.03;3348053;86;99088;-90
2021/12/18 11:39:10;;;;;;;16.37;9.50;;;;;;;4.08;100.00;102087.87;3324073;86;99149;-90
2021/12/18 11:44:31;;;;;;;18.57;9.87;;;;;;;4.08;100.00;102090.06;3338709;85;25882;-90
2021/12/18 11:49:42;;;;;;;17.33;9.30;;;;;;;4.13;100.00;102084.55;3338250;85;99112;-90
2021/12/18 11:54:55;;;;;;;13.27;6.50;;;;;;;4.12;100.00;102067.13;3330621;85;99104;-89
2021/12/18 11:59:56;;;;;;;12.20;5.60;;;;;;;4.10;100.00;102056.52;3294125;87;99315;-90
2021/12/18 12:05:01;;;;;;;13.73;5.87;;;;;;;4.14;100.00;102059.48;3328382;86;99298;-90
2021/12/18 12:10:46;;;;;;;11.27;5.67;;;;;;;4.16;100.00;102049.88;3311753;85;99198;-89
2021/12/18 12:15:27;;;;;;;10.07;4.83;;;;;;;4.19;100.00;102049.30;3323003;85;99284;-90
2021/12/18 12:20:39;;;;;;;9.35;4.75;;;;;;;4.22;100.00;102037.01;3307114;85;98970;-91
2021/12/18 12:25:51;;;;;;;9.80;4.70;;;;;;;4.26;100.00;102025.78;3309014;86;98459;-91
2021/12/18 12:31:09;;;;;;;10.53;4.87;;;;;;;4.29;100.00;102025.17;3314226;85;98904;-91
2021/12/18 12:36:24;;;;;;;10.80;5.17;;;;;;;4.31;100.00;102010.14;3326258;86;98813;-91
2021/12/18 12:41:38;;;;;;;12.57;6.67;;;;;;;4.31;100.00;102003.33;3309823;85;99005;-90
2021/12/18 12:46:39;;;;;;;13.57;7.03;;;;;;;4.34;100.00;101996.48;3312156;86;99373;-90
2021/12/18 12:52:03;;;;;;;14.80;7.93;;;;;;;4.37;100.00;101983.63;3329779;85;99040;-91
2021/12/18 12:57:29;;;;;;;22.70;13.03;;;;;;;4.38;100.00;101976.52;3311785;85;98947;-89
2021/12/18 13:02:40;;;;;;;17.40;8.77;;;;;;;4.42;100.00;101988.42;3299602;86;98864;-90
2021/12/18 13:07:51;;;;;;;17.57;9.40;;;;;;;4.43;100.00;101976.41;3302331;85;98576;-90
2021/12/18 13:12:57;;;;;;;16.37;9.37;;;;;;;4.46;100.00;101972.27;3312872;85;98820;-89
2021/12/18 13:18:07;;;;;;;17.53;10.47;;;;;;;4.49;100.00;101959.42;3301505;86;99019;-90
2021/12/18 13:23:08;;;;;;;15.07;8.67;;;;;;;4.51;100.00;101959.38;3351790;84;99383;-90
2021/12/18 13:28:09;;;;;;;17.37;8.93;;;;;;;4.51;100.00;101944.39;3355665;85;99271;-90
2021/12/18 13:33:10;;;;;;;17.00;9.47;;;;;;;4.51;100.00;101948.48;3346798;85;99555;-90
2021/12/18 13:38:14;;;;;;;20.70;10.27;;;;;;;4.53;100.00;101940.00;3349748;85;98782;-90
2021/12/18 13:43:22;;;;;;;17.70;9.50;;;;;;;4.52;100.00;101947.36;3365200;85;98913;-90
2021/12/18 13:48:31;;;;;;;15.00;7.63;;;;;;;4.53;100.00;101959.09;3359031;84;98863;-91
2021/12/18 13:53:32;;;;;;;18.97;9.20;;;;;;;4.54;100.00;101959.34;3308741;85;99255;-88
2021/12/18 13:58:37;;;;;;;24.30;13.30;;;;;;;4.57;100.00;101946.45;3342249;84;98926;-89
2021/12/18 14:03:59;;;;;;;51.60;22.63;;;;;;;4.58;100.00;101939.91;3338134;85;98984;-90
2021/12/18 14:09:23;;;;;;;31.75;11.35;;;;;;;4.59;100.00;101919.14;3283519;87;99130;-91
2021/12/18 14:14:48;;;;;;;25.47;11.00;;;;;;;4.61;100.00;101904.67;3302684;87;35096;-91
2021/12/18 14:19:49;;;;;;;22.27;10.87;;;;;;;4.60;100.00;101892.16;3274357;85;99183;-90
2021/12/18 14:25:07;;;;;;;19.30;9.20;;;;;;;4.62;100.00;101888.56;3292885;87;99012;-91
2021/12/18 14:30:25;;;;;;;23.97;12.10;;;;;;;4.64;100.00;101881.45;3288975;87;99476;-89
2021/12/18 14:35:26;;;;;;;22.43;10.83;;;;;;;4.65;100.00;101875.67;3292097;87;99103;-90
2021/12/18 14:40:31;;;;;;;21.90;10.45;;;;;;;4.66;100.00;101858.22;3270940;86;99083;-89
2021/12/18 14:45:35;;;;;;;19.10;9.17;;;;;;;4.66;100.00;101862.31;3396983;84;99464;-90
2021/12/18 14:50:46;;;;;;;18.47;9.00;;;;;;;4.65;100.00;101862.03;3357847;85;98968;-89
2021/12/18 14:56:00;;;;;;;19.07;9.77;;;;;;;4.67;100.00;101864.47;3345399;85;98645;-90
2021/12/18 15:01:14;;;;;;;26.20;11.57;;;;;;;4.68;100.00;101858.72;3352330;85;99344;-89
2021/12/18 15:06:33;;;;;;;17.60;8.57;;;;;;;4.67;100.00;101854.37;3314874;85;99419;-90
2021/12/18 15:11:47;;;;;;;17.85;8.95;;;;;;;4.68;100.00;101845.62;3306132;85;98963;-91
2021/12/18 15:17:00;;;;;;;16.63;8.57;;;;;;;4.67;100.00;101837.20;3334176;86;98985;-89
2021/12/18 15:22:09;;;;;;;11.70;6.30;;;;;;;4.65;100.00;101830.67;3303409;86;98931;-90
2021/12/18 15:27:12;;;;;;;16.70;8.30;;;;;;;4.69;100.00;101845.90;3331376;86;106106;-91
2021/12/18 15:32:15;;;;;;;14.10;7.27;;;;;;;4.69;100.00;101841.81;3305675;85;98964;-91
2021/12/18 15:37:16;;;;;;;12.93;6.83;;;;;;;4.70;100.00;101852.96;3328318;86;98842;-90
2021/12/18 15:42:21;;;;;;;15.03;6.97;;;;;;;4.70;100.00;101861.94;3333414;86;98814;-91
2021/12/18 15:47:23;;;;;;;15.03;7.80;;;;;;;4.72;100.00;101850.73;3309017;86;98910;-90
2021/12/18 15:52:23;;;;;;;13.40;8.03;;;;;;;4.73;100.00;101829.98;3336991;85;98890;-89
2021/12/18 15:57:24;;;;;;;17.67;8.77;;;;;;;4.74;100.00;101827.50;3350711;85;98831;-88
2021/12/18 16:02:25;;;;;;;17.20;9.30;;;;;;;4.73;100.00;101829.16;3317863;86;98713;-89
2021/12/18 16:07:26;;;;;;;16.60;8.00;;;;;;;4.72;100.00;101820.19;3308754;86;98809;-91
2021/12/18 16:12:27;;;;;;;19.70;9.70;;;;;;;4.73;100.00;101823.70;3265345;86;99014;-89
2021/12/18 16:17:28;;;;;;;19.93;9.90;;;;;;;4.74;100.00;101795.34;3264459;86;99293;-89
2021/12/18 16:22:28;;;;;;;17.57;7.67;;;;;;;4.74;100.00;101795.34;3264832;86;98842;-91
2021/12/18 16:27:29;;;;;;;16.97;8.80;;;;;;;4.73;100.00;101784.98;3307961;86;99227;-94
2021/12/18 16:32:30;;;;;;;19.17;9.67;;;;;;;4.73;100.00;101783.62;3310246;86;98827;-92
2021/12/18 16:37:32;;;;;;;17.77;9.80;;;;;;;4.75;100.00;101785.47;3287057;87;97908;-90
2021/12/18 16:42:33;;;;;;;15.07;8.40;;;;;;;4.76;100.00;101780.27;3270857;85;99273;-90
2021/12/18 16:47:34;;;;;;;12.93;6.97;;;;;;;4.75;100.00;101773.20;3279764;86;99401;-91
2021/12/18 16:52:35;;;;;;;12.88;6.00;;;;;;;4.73;100.00;101769.98;3351579;84;98904;-89
2021/12/18 16:57:40;;;;;;;12.23;6.40;;;;;;;4.70;100.00;101755.58;3345503;85;99198;-89
2021/12/18 17:02:40;;;;;;;11.77;6.37;;;;;;;4.72;100.00;101763.46;3371590;85;98125;-91
2021/12/18 17:07:44;;;;;;;14.27;6.00;;;;;;;4.70;100.00;101756.94;3352503;85;99238;-89
2021/12/18 17:12:46;;;;;;;13.67;8.00;;;;;;;4.71;100.00;101751.77;3346536;85;98756;-90
2021/12/18 17:17:47;;;;;;;11.53;6.23;;;;;;;4.69;100.00;101748.52;3369213;85;98049;-91
2021/12/18 17:22:48;;;;;;;11.20;5.70;;;;;;;4.71;100.00;101742.77;3361863;84;98863;-92
2021/12/18 17:27:52;;;;;;;11.97;6.83;;;;;;;4.71;100.00;101744.95;3365916;84;98909;-90
2021/12/18 17:32:53;;;;;;;12.97;6.77;;;;;;;4.67;100.00;101728.12;3382085;84;26436;-90
2021/12/18 17:37:58;;;;;;;11.93;5.50;;;;;;;4.69;100.00;101725.91;3381307;85;98643;-87
2021/12/18 17:43:01;;;;;;;10.37;5.33;;;;;;;4.69;100.00;101735.45;3356486;85;98845;-90
2021/12/18 17:48:02;;;;;;;9.53;4.43;;;;;;;4.68;100.00;101724.27;3341683;85;99393;-90
2021/12/18 17:53:05;;;;;;;11.73;6.03;;;;;;;4.68;100.00;101728.36;3316459;85;99188;-91
2021/12/18 17:58:08;;;;;;;9.30;5.00;;;;;;;4.70;100.00;101735.70;3316017;86;98893;-90
2021/12/18 18:03:08;;;;;;;13.67;7.07;;;;;;;4.69;100.00;101726.70;3314315;86;99248;-91
2021/12/18 18:08:12;;;;;;;18.10;9.77;;;;;;;4.70;100.00;101722.86;3333523;85;98646;-90
2021/12/18 18:13:25;;;;;;;13.57;7.57;;;;;;;4.74;100.00;101705.34;3375459;85;98748;-91
2021/12/18 18:18:27;;;;;;;11.93;6.43;;;;;;;4.75;100.00;101681.05;3361299;84;98923;-91
2021/12/18 18:23:27;;;;;;;13.47;7.10;;;;;;;4.75;100.00;101681.84;3367142;85;98836;-90
2021/12/18 18:28:28;;;;;;;12.35;5.90;;;;;;;4.73;100.00;101645.08;3364291;84;98965;-90
2021/12/18 18:33:29;;;;;;;11.40;5.60;;;;;;;4.73;100.00;101658.17;3301227;85;98919;-90
2021/12/18 18:38:30;;;;;;;12.33;5.60;;;;;;;4.73;100.00;101658.72;3297430;86;98533;-91
2021/12/18 18:43:37;;;;;;;16.12;7.65;;;;;;;4.76;100.00;101643.11;3290837;85;98768;-91
2021/12/18 18:48:39;;;;;;;10.85;4.85;;;;;;;4.77;100.00;101637.90;3343956;85;99216;-91
2021/12/18 18:53:42;;;;;;;12.23;6.50;;;;;;;4.76;100.00;101624.02;3294587;87;99013;-91
2021/12/18 18:58:43;;;;;;;13.43;5.93;;;;;;;4.78;100.00;101620.41;3305925;86;98984;-88
2021/12/18 19:03:43;;;;;;;12.80;6.23;;;;;;;4.78;100.00;101597.23;3324230;86;99717;-90
2021/12/18 19:08:45;;;;;;;12.60;5.17;;;;;;;4.77;100.00;101579.27;3338902;85;98990;-90
2021/12/18 19:13:45;;;;;;;13.63;5.73;;;;;;;4.76;100.00;101578.45;3336772;86;98191;-92
2021/12/18 19:18:51;;;;;;;14.27;6.90;;;;;;;4.77;100.00;101565.09;3305466;86;99537;-90
2021/12/18 19:23:53;;;;;;;13.13;6.77;;;;;;;4.77;100.00;101577.36;3336060;86;98973;-90
2021/12/18 19:28:56;;;;;;;11.38;5.50;;;;;;;4.77;100.00;101589.63;3333683;85;98912;-91
2021/12/18 19:33:57;;;;;;;11.90;6.97;;;;;;;4.78;100.00;101589.05;3315384;85;99683;-86
2021/12/18 19:38:59;;;;;;;11.57;5.00;;;;;;;4.78;100.00;101572.14;3311132;85;98671;-91
2021/12/18 19:44:00;;;;;;;10.83;5.37;;;;;;;4.78;100.00;101570.78;3337432;85;99067;-90
2021/12/18 19:49:04;;;;;;;17.92;7.12;;;;;;;4.80;100.00;101542.63;3350506;85;99455;-90
2021/12/18 19:54:05;;;;;;;14.03;6.20;;;;;;;4.82;100.00;101535.51;3314153;86;99087;-90
2021/12/18 19:59:08;;;;;;;15.17;6.27;;;;;;;4.82;100.00;101529.50;3305462;86;99456;-90
2021/12/18 20:09:30;;;;;;;15.17;7.63;;;;;;;4.84;100.00;101522.35;3372719;84;99344;-89
2021/12/18 20:14:31;;;;;;;13.17;6.63;;;;;;;4.85;100.00;101515.80;3303121;86;26494;-90
2021/12/18 20:19:34;;;;;;;14.83;9.50;;;;;;;4.85;100.00;101507.05;3306559;86;99361;-90
2021/12/18 20:24:35;;;;;;;12.87;6.70;;;;;;;4.87;100.00;101471.28;3308443;86;98721;-89
2021/12/18 20:29:35;;;;;;;11.07;5.83;;;;;;;4.85;100.00;101476.26;3300240;85;99426;-88
2021/12/18 20:34:37;;;;;;;14.93;6.83;;;;;;;4.87;100.00;101459.01;3310600;85;99424;-89
2021/12/18 20:39:43;;;;;;;16.07;7.67;;;;;;;4.86;100.00;101436.95;3281761;87;99034;-89
2021/12/18 20:44:44;;;;;;;15.30;6.97;;;;;;;4.87;100.00;101432.55;3306969;86;25877;-90
2021/12/18 20:49:49;;;;;;;12.00;6.55;;;;;;;4.87;100.00;101437.19;3290479;87;98765;-91
2021/12/18 20:54:51;;;;;;;12.53;6.10;;;;;;;4.87;100.00;101436.64;3336815;86;98722;-90
2021/12/18 20:59:54;;;;;;;10.28;5.08;;;;;;;4.86;100.00;101434.22;3295577;86;98898;-90
2021/12/18 21:04:57;;;;;;;11.80;5.20;;;;;;;4.85;100.00;101427.95;3337297;85;99260;-90
2021/12/18 21:10:01;;;;;;;10.13;4.63;;;;;;;4.82;100.00;101419.05;3378211;84;99404;-91
2021/12/18 21:15:04;;;;;;;10.57;5.20;;;;;;;4.79;100.00;101412.84;3348487;85;26814;-90
2021/12/18 21:20:07;;;;;;;11.05;5.55;;;;;;;4.81;100.00;101409.23;3258374;87;99141;-89
2021/12/18 21:25:11;;;;;;;9.80;4.40;;;;;;;4.82;100.00;101391.77;3358753;85;98709;-89
2021/12/18 21:30:16;;;;;;;12.10;5.70;;;;;;;4.83;100.00;101396.11;3358473;85;99089;-92
2021/12/18 21:40:39;;;;;;;12.93;4.90;;;;;;;4.82;100.00;101356.87;3351489;83;99044;-90
2021/12/18 21:45:41;;;;;;;17.60;6.03;;;;;;;4.80;100.00;101354.45;3314233;85;99010;-90
2021/12/18 21:50:44;;;;;;;9.63;4.23;;;;;;;4.80;100.00;101344.91;3349025;84;98912;-89
2021/12/18 21:55:59;;;;;;;9.03;4.60;;;;;;;4.81;100.00;101342.41;3336282;84;98574;-90
2021/12/18 22:00:50;;;;;;;8.73;4.33;;;;;;;4.82;100.00;101339.96;3303252;84;98866;-91
2021/12/18 22:05:52;;;;;;;8.30;3.80;;;;;;;4.83;100.00;101315.65;3305686;85;98827;-91
2021/12/18 22:10:57;;;;;;;12.47;4.78;;;;;;;4.87;100.00;101310.36;3278254;87;98717;-89
2021/12/18 22:15:59;;;;;;;10.60;4.80;;;;;;;4.90;100.00;101316.53;3280576;87;99220;-91
2021/12/18 22:20:59;;;;;;;13.93;7.63;;;;;;;4.93;100.00;101300.91;3333670;86;98616;-91
2021/12/18 22:26:00;;;;;;;9.10;4.13;;;;;;;4.96;100.00;101279.83;3343171;86;98641;-90
2021/12/18 22:31:01;;;;;;;10.38;4.37;;;;;;;4.97;100.00;101276.75;3318180;86;98919;-90
2021/12/18 22:36:04;;;;;;;8.43;4.03;;;;;;;5.00;100.00;101259.77;3319530;86;98971;-93
2021/12/18 22:41:06;;;;;;;9.47;4.20;;;;;;;5.03;100.00;101249.55;3330952;86;98720;-88
2021/12/18 22:46:09;;;;;;;9.07;4.57;;;;;;;5.07;100.00;101255.20;3341444;85;99634;-89
2021/12/18 22:51:10;;;;;;;8.80;4.10;;;;;;;5.09;100.00;101226.48;3321375;85;98687;-90
2021/12/18 22:56:11;;;;;;;9.30;4.17;;;;;;;5.12;100.00;101214.91;3359663;85;33709;-90
2021/12/18 23:01:23;;;;;;;10.70;4.95;;;;;;;5.16;100.00;101206.87;3325034;84;98611;-89
2021/12/18 23:06:26;;;;;;;8.67;4.20;;;;;;;5.18;100.00;101194.52;3355819;85;98903;-89
2021/12/18 23:11:41;;;;;;;10.20;4.80;;;;;;;5.22;100.00;101183.75;3339306;85;98800;-89
2021/12/18 23:21:43;;;;;;;9.53;4.83;;;;;;;5.29;100.00;101177.27;3352606;85;99237;-88
2021/12/18 23:26:48;;;;;;;10.23;5.20;;;;;;;5.33;100.00;101161.82;3381798;85;26456;-88
2021/12/18 23:31:51;;;;;;;12.23;5.33;;;;;;;5.37;100.00;101151.87;3319088;86;99191;-89
2021/12/18 23:36:52;;;;;;;11.67;5.00;;;;;;;5.39;100.00;101144.95;3306833;86;98730;-90
2021/12/18 23:42:00;;;;;;;13.03;5.93;;;;;;;5.42;100.00;101121.12;3347887;86;99204;-89
2021/12/18 23:46:56;;;;;;;12.53;6.10;;;;;;;5.45;100.00;101112.27;3349277;85;99338;-90
2021/12/18 23:51:57;;;;;;;14.13;6.92;;;;;;;5.50;100.00;101100.35;3333757;85;98996;-88
2021/12/18 23:56:58;;;;;;;15.53;7.17;;;;;;;5.53;100.00;101101.89;3320464;85;33147;-90
